This is the latest recevied weather packets stored in our database for station/object K9ABJ. If no packets are shown the sender has not sent any weather packets the latest 10 day(s).
| Time | Temp. | Humidity | Pressure | Rain* | Wind** | Luminosity | Snow |
|---|---|---|---|---|---|---|---|
| 1787935098 | 24.44° C | 67% | 1021.7 hPa | 0 mm | - | 565 W/m² | - |
| 1787934793 | 25° C | 67% | 1021.6 hPa | 0 mm | - | 458 W/m² | - |
| 1787934492 | 25.56° C | 64% | 1021.6 hPa | 0 mm | - | 481 W/m² | - |
| 1787934187 | 24.44° C | 67% | 1021.8 hPa | 0 mm | - | 579 W/m² | - |
| 1787933887 | 26.11° C | 65% | 1021.7 hPa | 0 mm | - | 538 W/m² | - |
| 1787933586 | 27.22° C | 63% | 1021.8 hPa | 0 mm | - | 439 W/m² | - |
| 1787933281 | 25° C | 68% | 1021.5 hPa | 0 mm | - | 478 W/m² | - |
| 1787932980 | 25.56° C | 66% | 1021.6 hPa | 0 mm | - | 587 W/m² | - |
| 1787932680 | 25.56° C | 68% | 1021.7 hPa | 0 mm | - | 410 W/m² | - |
| 1787932380 | 25° C | 69% | 1021.7 hPa | 0 mm | - | 357 W/m² | - |
| 1787932080 | 25° C | 69% | 1021.7 hPa | 0 mm | - | 349 W/m² | - |
| 1787931778 | 25° C | 70% | 1021.7 hPa | 0 mm | - | 371 W/m² | - |
| 1787931473 | 24.44° C | 72% | 1021.6 hPa | 0 mm | - | 525 W/m² | - |
| 1787931168 | 24.44° C | 71% | 1021.8 hPa | 0 mm | - | 525 W/m² | - |
| 1787930867 | 24.44° C | 72% | 1021.9 hPa | 0 mm | - | 470 W/m² | - |
| 1787930567 | 24.44° C | 73% | 1021.8 hPa | 0 mm | - | 533 W/m² | - |
| 1787930262 | 23.33° C | 74% | 1021.5 hPa | 0 mm | - | 486 W/m² | - |
| 1787929962 | 23.33° C | 75% | 1021.7 hPa | 0 mm | - | 475 W/m² | - |
| 1787929661 | 23.89° C | 73% | 1021.6 hPa | 0 mm | - | 301 W/m² | - |
| 1787929356 | 23.89° C | 75% | 1021.7 hPa | 0 mm | - | 273 W/m² | - |
| 1787929053 | 23.33° C | 76% | 1021.8 hPa | 0 mm | - | 273 W/m² | - |
| 1787928749 | 23.33° C | 75% | 1021.6 hPa | 0 mm | - | 284 W/m² | - |
| 1787928447 | 23.89° C | 75% | 1021.6 hPa | 0 mm | - | 456 W/m² | - |
| 1787928147 | 23.33° C | 78% | 1021.6 hPa | 0 mm | - | 446 W/m² | - |
| 1787927847 | 22.78° C | 78% | 1021.6 hPa | 0 mm | - | 459 W/m² | - |
* Rain latest hour (hover to see other rain measurements)
** Current wind speed in m/s (hover to see current wind gust speed)